Curvitas, Texas
Current Conditions -  °F | °C
As of 9:05 AM on Sunday 28 Dec 2014 (Local Time) from KMFE Reporting Station
Moderate Rain Moderate Rain  
Wind Chill: 41°   Ceiling: 800
Heat Index: 47°   Visibility: 2.5mi
Dew Point: 45°   Wind: 13mph
Humidity: 93%   Direction: 340°NNW
Pressure: 30.3"   Gusts: 22mph
Location:  26.2409°N, 98.5558°W
Report Text: KMFE 281505Z 34011G19KT 2 1/2SM RA BR BKN008 BKN039 OVC080 08/07 A3030 RMK AO2 P0004 T00830072
Loading
Personal Weather Stations






























Interactive Weather Map New forecast layout! Learn more

10-Day Weather Forecast

Advertisements
Track Severe Weather on mobile